sensor_id;sensor_type;location;lat;lon;timestamp;P1;durP1;ratioP1;P2;durP2;ratioP2
4047;SDS011;2038;51.728;6.674;2024-01-27T00:00:33;21.73;;;5.30;;
4047;SDS011;2038;51.728;6.674;2024-01-27T00:02:59;16.93;;;5.27;;
4047;SDS011;2038;51.728;6.674;2024-01-27T00:05:25;24.20;;;6.53;;
4047;SDS011;2038;51.728;6.674;2024-01-27T00:07:52;18.80;;;5.90;;
4047;SDS011;2038;51.728;6.674;2024-01-27T00:10:18;20.97;;;5.47;;
4047;SDS011;2038;51.728;6.674;2024-01-27T00:12:44;17.67;;;6.27;;
4047;SDS011;2038;51.728;6.674;2024-01-27T00:15:10;23.37;;;6.00;;
4047;SDS011;2038;51.728;6.674;2024-01-27T00:17:36;16.03;;;5.47;;
4047;SDS011;2038;51.728;6.674;2024-01-27T00:20:03;15.30;;;5.10;;
4047;SDS011;2038;51.728;6.674;2024-01-27T00:22:30;24.87;;;6.27;;
4047;SDS011;2038;51.728;6.674;2024-01-27T00:24:56;24.77;;;6.27;;
4047;SDS011;2038;51.728;6.674;2024-01-27T00:27:22;18.37;;;4.83;;
4047;SDS011;2038;51.728;6.674;2024-01-27T00:29:48;14.07;;;6.20;;
4047;SDS011;2038;51.728;6.674;2024-01-27T00:32:14;13.97;;;6.57;;
4047;SDS011;2038;51.728;6.674;2024-01-27T00:34:41;20.83;;;6.00;;
4047;SDS011;2038;51.728;6.674;2024-01-27T00:37:07;13.07;;;5.50;;
4047;SDS011;2038;51.728;6.674;2024-01-27T00:39:33;11.33;;;5.70;;
4047;SDS011;2038;51.728;6.674;2024-01-27T00:41:59;30.90;;;7.03;;
4047;SDS011;2038;51.728;6.674;2024-01-27T00:44:25;25.50;;;6.40;;
4047;SDS011;2038;51.728;6.674;2024-01-27T00:46:52;13.33;;;6.37;;
4047;SDS011;2038;51.728;6.674;2024-01-27T00:49:18;17.73;;;5.70;;
4047;SDS011;2038;51.728;6.674;2024-01-27T00:51:45;21.53;;;7.80;;
4047;SDS011;2038;51.728;6.674;2024-01-27T00:54:11;17.17;;;6.00;;
4047;SDS011;2038;51.728;6.674;2024-01-27T00:56:37;14.60;;;6.37;;
4047;SDS011;2038;51.728;6.674;2024-01-27T00:59:04;15.00;;;6.63;;
4047;SDS011;2038;51.728;6.674;2024-01-27T01:01:30;13.80;;;6.67;;
4047;SDS011;2038;51.728;6.674;2024-01-27T01:03:56;17.53;;;6.17;;
4047;SDS011;2038;51.728;6.674;2024-01-27T01:06:22;33.70;;;7.70;;
4047;SDS011;2038;51.728;6.674;2024-01-27T01:08:49;15.70;;;5.80;;
4047;SDS011;2038;51.728;6.674;2024-01-27T01:11:15;16.83;;;6.73;;
4047;SDS011;2038;51.728;6.674;2024-01-27T01:13:42;19.00;;;6.23;;
4047;SDS011;2038;51.728;6.674;2024-01-27T01:16:08;15.00;;;5.27;;
4047;SDS011;2038;51.728;6.674;2024-01-27T01:18:34;19.83;;;6.27;;
4047;SDS011;2038;51.728;6.674;2024-01-27T01:21:00;16.00;;;6.47;;
4047;SDS011;2038;51.728;6.674;2024-01-27T01:23:27;13.80;;;5.33;;
4047;SDS011;2038;51.728;6.674;2024-01-27T01:25:53;18.53;;;6.40;;
4047;SDS011;2038;51.728;6.674;2024-01-27T01:28:19;15.37;;;5.50;;
4047;SDS011;2038;51.728;6.674;2024-01-27T01:30:45;17.23;;;5.60;;
4047;SDS011;2038;51.728;6.674;2024-01-27T01:33:12;20.13;;;7.37;;
4047;SDS011;2038;51.728;6.674;2024-01-27T01:35:38;15.33;;;7.67;;
4047;SDS011;2038;51.728;6.674;2024-01-27T01:38:04;26.47;;;6.70;;
4047;SDS011;2038;51.728;6.674;2024-01-27T01:40:30;23.37;;;6.00;;
4047;SDS011;2038;51.728;6.674;2024-01-27T01:42:58;19.57;;;6.97;;
4047;SDS011;2038;51.728;6.674;2024-01-27T01:45:24;15.20;;;6.60;;
4047;SDS011;2038;51.728;6.674;2024-01-27T01:47:50;8.20;;;5.40;;
4047;SDS011;2038;51.728;6.674;2024-01-27T01:50:17;13.90;;;6.30;;
4047;SDS011;2038;51.728;6.674;2024-01-27T01:52:43;15.70;;;7.50;;
4047;SDS011;2038;51.728;6.674;2024-01-27T01:55:13;10.90;;;6.30;;
4047;SDS011;2038;51.728;6.674;2024-01-27T01:57:41;20.07;;;7.00;;
4047;SDS011;2038;51.728;6.674;2024-01-27T02:00:09;19.53;;;6.40;;
4047;SDS011;2038;51.728;6.674;2024-01-27T02:02:36;12.77;;;5.60;;
4047;SDS011;2038;51.728;6.674;2024-01-27T02:05:02;12.63;;;6.87;;
4047;SDS011;2038;51.728;6.674;2024-01-27T02:07:29;21.23;;;7.40;;
4047;SDS011;2038;51.728;6.674;2024-01-27T02:09:55;15.00;;;5.67;;
4047;SDS011;2038;51.728;6.674;2024-01-27T02:12:22;21.17;;;6.70;;
4047;SDS011;2038;51.728;6.674;2024-01-27T02:14:48;15.77;;;8.47;;
4047;SDS011;2038;51.728;6.674;2024-01-27T02:17:14;14.70;;;6.40;;
4047;SDS011;2038;51.728;6.674;2024-01-27T02:19:41;15.43;;;6.47;;
4047;SDS011;2038;51.728;6.674;2024-01-27T02:22:07;19.67;;;6.13;;
4047;SDS011;2038;51.728;6.674;2024-01-27T02:24:33;9.97;;;5.60;;
4047;SDS011;2038;51.728;6.674;2024-01-27T02:26:59;23.47;;;5.70;;
4047;SDS011;2038;51.728;6.674;2024-01-27T02:29:26;9.87;;;6.03;;
4047;SDS011;2038;51.728;6.674;2024-01-27T02:31:53;13.67;;;6.13;;
4047;SDS011;2038;51.728;6.674;2024-01-27T02:34:20;13.80;;;7.10;;
4047;SDS011;2038;51.728;6.674;2024-01-27T02:36:46;28.73;;;7.20;;
4047;SDS011;2038;51.728;6.674;2024-01-27T02:39:12;10.63;;;6.67;;
4047;SDS011;2038;51.728;6.674;2024-01-27T02:41:39;16.87;;;6.80;;
4047;SDS011;2038;51.728;6.674;2024-01-27T02:44:05;13.77;;;5.93;;
4047;SDS011;2038;51.728;6.674;2024-01-27T02:46:31;14.93;;;6.50;;
4047;SDS011;2038;51.728;6.674;2024-01-27T02:48:57;14.90;;;6.23;;
4047;SDS011;2038;51.728;6.674;2024-01-27T02:51:24;14.30;;;5.93;;
4047;SDS011;2038;51.728;6.674;2024-01-27T02:53:50;14.47;;;5.97;;
4047;SDS011;2038;51.728;6.674;2024-01-27T02:56:16;12.57;;;6.63;;
4047;SDS011;2038;51.728;6.674;2024-01-27T02:58:42;15.13;;;7.70;;
4047;SDS011;2038;51.728;6.674;2024-01-27T03:01:09;11.47;;;6.13;;
4047;SDS011;2038;51.728;6.674;2024-01-27T03:03:35;17.80;;;7.13;;
4047;SDS011;2038;51.728;6.674;2024-01-27T03:06:01;10.27;;;6.50;;
4047;SDS011;2038;51.728;6.674;2024-01-27T03:08:27;14.37;;;7.93;;
4047;SDS011;2038;51.728;6.674;2024-01-27T03:10:53;18.80;;;7.77;;
4047;SDS011;2038;51.728;6.674;2024-01-27T03:13:20;15.47;;;9.20;;
4047;SDS011;2038;51.728;6.674;2024-01-27T03:15:46;14.70;;;7.33;;
4047;SDS011;2038;51.728;6.674;2024-01-27T03:18:14;10.03;;;7.40;;
4047;SDS011;2038;51.728;6.674;2024-01-27T03:20:40;11.30;;;6.87;;
4047;SDS011;2038;51.728;6.674;2024-01-27T03:23:06;16.90;;;7.33;;
4047;SDS011;2038;51.728;6.674;2024-01-27T03:25:32;16.43;;;8.03;;
4047;SDS011;2038;51.728;6.674;2024-01-27T03:27:59;12.50;;;7.73;;
4047;SDS011;2038;51.728;6.674;2024-01-27T03:30:25;9.80;;;7.53;;
4047;SDS011;2038;51.728;6.674;2024-01-27T03:32:52;11.33;;;7.33;;
4047;SDS011;2038;51.728;6.674;2024-01-27T03:35:18;16.87;;;8.87;;
4047;SDS011;2038;51.728;6.674;2024-01-27T03:37:44;18.10;;;9.70;;
4047;SDS011;2038;51.728;6.674;2024-01-27T03:40:10;16.83;;;7.70;;
4047;SDS011;2038;51.728;6.674;2024-01-27T03:42:38;23.70;;;9.40;;
4047;SDS011;2038;51.728;6.674;2024-01-27T03:45:05;20.23;;;9.90;;
4047;SDS011;2038;51.728;6.674;2024-01-27T03:47:31;15.20;;;8.43;;
4047;SDS011;2038;51.728;6.674;2024-01-27T03:49:57;20.30;;;9.40;;
4047;SDS011;2038;51.728;6.674;2024-01-27T03:52:24;24.73;;;9.00;;
4047;SDS011;2038;51.728;6.674;2024-01-27T03:54:50;17.37;;;8.77;;
4047;SDS011;2038;51.728;6.674;2024-01-27T03:57:16;20.80;;;9.77;;
4047;SDS011;2038;51.728;6.674;2024-01-27T03:59:42;24.10;;;9.87;;
4047;SDS011;2038;51.728;6.674;2024-01-27T04:02:09;23.23;;;10.30;;
4047;SDS011;2038;51.728;6.674;2024-01-27T04:04:35;26.00;;;10.93;;
4047;SDS011;2038;51.728;6.674;2024-01-27T04:07:01;25.43;;;10.90;;
4047;SDS011;2038;51.728;6.674;2024-01-27T04:09:27;22.70;;;10.93;;
4047;SDS011;2038;51.728;6.674;2024-01-27T04:11:54;18.70;;;10.27;;
4047;SDS011;2038;51.728;6.674;2024-01-27T04:14:20;31.90;;;12.03;;
4047;SDS011;2038;51.728;6.674;2024-01-27T04:16:46;16.53;;;10.10;;
4047;SDS011;2038;51.728;6.674;2024-01-27T04:19:12;24.93;;;10.77;;
4047;SDS011;2038;51.728;6.674;2024-01-27T04:21:38;23.40;;;11.03;;
4047;SDS011;2038;51.728;6.674;2024-01-27T04:24:06;25.73;;;10.80;;
4047;SDS011;2038;51.728;6.674;2024-01-27T04:26:32;22.73;;;11.23;;
4047;SDS011;2038;51.728;6.674;2024-01-27T04:28:59;17.23;;;11.40;;
4047;SDS011;2038;51.728;6.674;2024-01-27T04:31:25;27.00;;;11.20;;
4047;SDS011;2038;51.728;6.674;2024-01-27T04:33:51;21.40;;;11.20;;
4047;SDS011;2038;51.728;6.674;2024-01-27T04:36:30;16.40;;;9.30;;
4047;SDS011;2038;51.728;6.674;2024-01-27T04:38:56;21.67;;;13.90;;
4047;SDS011;2038;51.728;6.674;2024-01-27T04:41:22;23.80;;;12.00;;
4047;SDS011;2038;51.728;6.674;2024-01-27T04:43:48;15.40;;;10.07;;
4047;SDS011;2038;51.728;6.674;2024-01-27T04:46:15;19.97;;;11.77;;
4047;SDS011;2038;51.728;6.674;2024-01-27T04:48:41;17.30;;;11.53;;
4047;SDS011;2038;51.728;6.674;2024-01-27T04:51:08;14.50;;;11.17;;
4047;SDS011;2038;51.728;6.674;2024-01-27T04:53:35;25.80;;;11.97;;
4047;SDS011;2038;51.728;6.674;2024-01-27T04:56:01;18.23;;;11.00;;
4047;SDS011;2038;51.728;6.674;2024-01-27T04:58:27;22.90;;;13.13;;
4047;SDS011;2038;51.728;6.674;2024-01-27T05:00:53;25.10;;;11.77;;
4047;SDS011;2038;51.728;6.674;2024-01-27T05:03:20;23.40;;;14.87;;
4047;SDS011;2038;51.728;6.674;2024-01-27T05:05:46;24.10;;;12.57;;
4047;SDS011;2038;51.728;6.674;2024-01-27T05:08:12;18.60;;;12.63;;
4047;SDS011;2038;51.728;6.674;2024-01-27T05:10:39;20.17;;;14.07;;
4047;SDS011;2038;51.728;6.674;2024-01-27T05:13:05;27.97;;;13.43;;
4047;SDS011;2038;51.728;6.674;2024-01-27T05:15:31;27.63;;;13.00;;
4047;SDS011;2038;51.728;6.674;2024-01-27T05:17:57;19.57;;;13.60;;
4047;SDS011;2038;51.728;6.674;2024-01-27T05:20:24;18.00;;;12.00;;
4047;SDS011;2038;51.728;6.674;2024-01-27T05:22:50;27.23;;;13.23;;
4047;SDS011;2038;51.728;6.674;2024-01-27T05:25:16;20.57;;;12.03;;
4047;SDS011;2038;51.728;6.674;2024-01-27T05:27:42;18.47;;;12.70;;
4047;SDS011;2038;51.728;6.674;2024-01-27T05:30:09;20.37;;;11.97;;
4047;SDS011;2038;51.728;6.674;2024-01-27T05:32:35;21.17;;;13.80;;
4047;SDS011;2038;51.728;6.674;2024-01-27T05:35:01;20.43;;;13.17;;
4047;SDS011;2038;51.728;6.674;2024-01-27T05:37:30;20.93;;;13.30;;
4047;SDS011;2038;51.728;6.674;2024-01-27T05:39:56;29.83;;;15.10;;
4047;SDS011;2038;51.728;6.674;2024-01-27T05:42:22;17.90;;;12.60;;
4047;SDS011;2038;51.728;6.674;2024-01-27T05:44:48;23.80;;;13.67;;
4047;SDS011;2038;51.728;6.674;2024-01-27T05:47:14;27.83;;;15.47;;
4047;SDS011;2038;51.728;6.674;2024-01-27T05:49:41;30.60;;;12.73;;
4047;SDS011;2038;51.728;6.674;2024-01-27T05:52:07;24.40;;;13.80;;
4047;SDS011;2038;51.728;6.674;2024-01-27T05:54:33;24.37;;;14.93;;
4047;SDS011;2038;51.728;6.674;2024-01-27T05:56:59;29.93;;;14.77;;
4047;SDS011;2038;51.728;6.674;2024-01-27T05:59:26;21.10;;;13.00;;
4047;SDS011;2038;51.728;6.674;2024-01-27T06:01:52;31.27;;;14.17;;
4047;SDS011;2038;51.728;6.674;2024-01-27T06:04:18;15.43;;;12.43;;
4047;SDS011;2038;51.728;6.674;2024-01-27T06:06:44;27.70;;;14.73;;
4047;SDS011;2038;51.728;6.674;2024-01-27T06:09:11;23.40;;;14.10;;
4047;SDS011;2038;51.728;6.674;2024-01-27T06:11:38;33.30;;;14.20;;
4047;SDS011;2038;51.728;6.674;2024-01-27T06:14:05;24.03;;;13.57;;
4047;SDS011;2038;51.728;6.674;2024-01-27T06:16:31;20.53;;;13.63;;
4047;SDS011;2038;51.728;6.674;2024-01-27T06:18:58;22.00;;;13.63;;
4047;SDS011;2038;51.728;6.674;2024-01-27T06:21:25;25.83;;;13.03;;
4047;SDS011;2038;51.728;6.674;2024-01-27T06:23:51;30.13;;;14.40;;
4047;SDS011;2038;51.728;6.674;2024-01-27T06:26:17;21.63;;;13.60;;
4047;SDS011;2038;51.728;6.674;2024-01-27T06:28:43;26.90;;;12.57;;
4047;SDS011;2038;51.728;6.674;2024-01-27T06:31:10;26.50;;;14.40;;
4047;SDS011;2038;51.728;6.674;2024-01-27T06:33:37;22.93;;;13.57;;
4047;SDS011;2038;51.728;6.674;2024-01-27T06:36:03;20.13;;;13.80;;
4047;SDS011;2038;51.728;6.674;2024-01-27T06:38:29;31.83;;;14.87;;
4047;SDS011;2038;51.728;6.674;2024-01-27T06:40:56;32.50;;;15.73;;
4047;SDS011;2038;51.728;6.674;2024-01-27T06:43:22;32.93;;;14.43;;
4047;SDS011;2038;51.728;6.674;2024-01-27T06:45:49;22.53;;;14.33;;
4047;SDS011;2038;51.728;6.674;2024-01-27T06:48:15;36.30;;;16.10;;
4047;SDS011;2038;51.728;6.674;2024-01-27T06:50:41;28.83;;;14.97;;
4047;SDS011;2038;51.728;6.674;2024-01-27T06:53:07;24.83;;;13.97;;
4047;SDS011;2038;51.728;6.674;2024-01-27T06:55:35;29.87;;;15.63;;
4047;SDS011;2038;51.728;6.674;2024-01-27T06:58:01;21.33;;;16.13;;
4047;SDS011;2038;51.728;6.674;2024-01-27T07:00:28;30.70;;;15.67;;
4047;SDS011;2038;51.728;6.674;2024-01-27T07:02:54;24.87;;;15.70;;
4047;SDS011;2038;51.728;6.674;2024-01-27T07:05:22;28.33;;;15.53;;
4047;SDS011;2038;51.728;6.674;2024-01-27T07:07:49;29.80;;;15.43;;
4047;SDS011;2038;51.728;6.674;2024-01-27T07:10:15;27.17;;;16.63;;
4047;SDS011;2038;51.728;6.674;2024-01-27T07:12:41;22.50;;;13.87;;
4047;SDS011;2038;51.728;6.674;2024-01-27T07:15:08;21.70;;;13.80;;
4047;SDS011;2038;51.728;6.674;2024-01-27T07:17:34;23.13;;;13.73;;
4047;SDS011;2038;51.728;6.674;2024-01-27T07:20:00;22.87;;;14.13;;
4047;SDS011;2038;51.728;6.674;2024-01-27T07:22:27;19.63;;;14.20;;
4047;SDS011;2038;51.728;6.674;2024-01-27T07:24:54;23.27;;;13.87;;
4047;SDS011;2038;51.728;6.674;2024-01-27T07:27:21;27.93;;;16.17;;
4047;SDS011;2038;51.728;6.674;2024-01-27T07:29:48;24.80;;;14.20;;
4047;SDS011;2038;51.728;6.674;2024-01-27T07:32:14;20.63;;;14.43;;
4047;SDS011;2038;51.728;6.674;2024-01-27T07:34:41;24.67;;;14.67;;
4047;SDS011;2038;51.728;6.674;2024-01-27T07:37:09;28.17;;;14.83;;
4047;SDS011;2038;51.728;6.674;2024-01-27T07:39:35;27.57;;;14.80;;
4047;SDS011;2038;51.728;6.674;2024-01-27T07:42:02;27.40;;;13.87;;
4047;SDS011;2038;51.728;6.674;2024-01-27T07:44:28;19.73;;;12.67;;
4047;SDS011;2038;51.728;6.674;2024-01-27T07:46:55;33.33;;;17.03;;
4047;SDS011;2038;51.728;6.674;2024-01-27T07:49:21;25.73;;;14.07;;
4047;SDS011;2038;51.728;6.674;2024-01-27T07:51:47;22.70;;;14.60;;
4047;SDS011;2038;51.728;6.674;2024-01-27T07:54:13;24.30;;;13.70;;
4047;SDS011;2038;51.728;6.674;2024-01-27T07:56:40;27.90;;;15.33;;
4047;SDS011;2038;51.728;6.674;2024-01-27T07:59:06;29.13;;;14.80;;
4047;SDS011;2038;51.728;6.674;2024-01-27T08:01:38;28.20;;;15.80;;
4047;SDS011;2038;51.728;6.674;2024-01-27T08:04:05;35.20;;;15.73;;
4047;SDS011;2038;51.728;6.674;2024-01-27T08:06:31;40.03;;;18.73;;
4047;SDS011;2038;51.728;6.674;2024-01-27T08:08:58;23.60;;;15.83;;
4047;SDS011;2038;51.728;6.674;2024-01-27T08:11:25;34.57;;;15.83;;
4047;SDS011;2038;51.728;6.674;2024-01-27T08:13:51;143.93;;;52.33;;
4047;SDS011;2038;51.728;6.674;2024-01-27T08:16:18;59.17;;;26.83;;
4047;SDS011;2038;51.728;6.674;2024-01-27T08:18:45;51.80;;;19.77;;
4047;SDS011;2038;51.728;6.674;2024-01-27T08:21:11;43.97;;;18.17;;
4047;SDS011;2038;51.728;6.674;2024-01-27T08:23:37;42.07;;;18.73;;
4047;SDS011;2038;51.728;6.674;2024-01-27T08:26:04;28.47;;;16.90;;
4047;SDS011;2038;51.728;6.674;2024-01-27T08:28:30;30.97;;;14.23;;
4047;SDS011;2038;51.728;6.674;2024-01-27T08:30:56;24.33;;;13.27;;
4047;SDS011;2038;51.728;6.674;2024-01-27T08:33:24;27.23;;;12.00;;
4047;SDS011;2038;51.728;6.674;2024-01-27T08:35:50;29.07;;;12.20;;
4047;SDS011;2038;51.728;6.674;2024-01-27T08:38:17;37.80;;;13.43;;
4047;SDS011;2038;51.728;6.674;2024-01-27T08:40:43;20.27;;;12.70;;
4047;SDS011;2038;51.728;6.674;2024-01-27T08:43:09;25.50;;;12.30;;
4047;SDS011;2038;51.728;6.674;2024-01-27T08:45:37;33.10;;;11.90;;
4047;SDS011;2038;51.728;6.674;2024-01-27T08:48:04;19.37;;;11.43;;
4047;SDS011;2038;51.728;6.674;2024-01-27T08:50:31;30.63;;;14.20;;
4047;SDS011;2038;51.728;6.674;2024-01-27T08:52:57;24.77;;;13.43;;
4047;SDS011;2038;51.728;6.674;2024-01-27T08:55:24;31.07;;;12.20;;
4047;SDS011;2038;51.728;6.674;2024-01-27T08:57:50;23.17;;;12.90;;
4047;SDS011;2038;51.728;6.674;2024-01-27T09:00:17;30.80;;;14.50;;
4047;SDS011;2038;51.728;6.674;2024-01-27T09:02:43;25.03;;;12.70;;
4047;SDS011;2038;51.728;6.674;2024-01-27T09:05:10;28.90;;;12.00;;
4047;SDS011;2038;51.728;6.674;2024-01-27T09:07:36;22.23;;;13.40;;
4047;SDS011;2038;51.728;6.674;2024-01-27T09:10:03;19.70;;;13.47;;
4047;SDS011;2038;51.728;6.674;2024-01-27T09:12:30;33.17;;;13.73;;
4047;SDS011;2038;51.728;6.674;2024-01-27T09:14:56;21.97;;;12.63;;
4047;SDS011;2038;51.728;6.674;2024-01-27T09:17:22;27.90;;;16.20;;
4047;SDS011;2038;51.728;6.674;2024-01-27T09:19:48;31.90;;;13.70;;
4047;SDS011;2038;51.728;6.674;2024-01-27T09:22:15;25.27;;;13.33;;
4047;SDS011;2038;51.728;6.674;2024-01-27T09:24:42;34.07;;;13.87;;
4047;SDS011;2038;51.728;6.674;2024-01-27T09:27:08;25.10;;;14.33;;
4047;SDS011;2038;51.728;6.674;2024-01-27T09:29:34;25.87;;;13.10;;
4047;SDS011;2038;51.728;6.674;2024-01-27T09:32:00;39.67;;;14.00;;
4047;SDS011;2038;51.728;6.674;2024-01-27T09:34:27;25.17;;;12.83;;
4047;SDS011;2038;51.728;6.674;2024-01-27T09:36:53;26.07;;;15.10;;
4047;SDS011;2038;51.728;6.674;2024-01-27T09:39:19;18.47;;;12.73;;
4047;SDS011;2038;51.728;6.674;2024-01-27T09:41:45;27.13;;;13.90;;
4047;SDS011;2038;51.728;6.674;2024-01-27T09:44:15;31.47;;;13.10;;
4047;SDS011;2038;51.728;6.674;2024-01-27T09:46:46;20.30;;;12.00;;
4047;SDS011;2038;51.728;6.674;2024-01-27T09:49:13;31.07;;;14.30;;
4047;SDS011;2038;51.728;6.674;2024-01-27T09:51:41;29.60;;;13.10;;
4047;SDS011;2038;51.728;6.674;2024-01-27T09:54:07;35.63;;;14.40;;
4047;SDS011;2038;51.728;6.674;2024-01-27T09:56:34;28.57;;;14.33;;
4047;SDS011;2038;51.728;6.674;2024-01-27T09:59:00;32.47;;;13.20;;
4047;SDS011;2038;51.728;6.674;2024-01-27T10:01:27;22.83;;;12.30;;
4047;SDS011;2038;51.728;6.674;2024-01-27T10:03:54;31.30;;;14.30;;
4047;SDS011;2038;51.728;6.674;2024-01-27T10:06:23;25.00;;;12.20;;
4047;SDS011;2038;51.728;6.674;2024-01-27T10:08:55;44.30;;;15.10;;
4047;SDS011;2038;51.728;6.674;2024-01-27T10:11:22;36.27;;;14.90;;
4047;SDS011;2038;51.728;6.674;2024-01-27T10:13:56;22.07;;;14.10;;
4047;SDS011;2038;51.728;6.674;2024-01-27T10:16:24;36.00;;;15.63;;
4047;SDS011;2038;51.728;6.674;2024-01-27T10:19:01;33.37;;;12.93;;
4047;SDS011;2038;51.728;6.674;2024-01-27T10:21:28;25.50;;;13.30;;
4047;SDS011;2038;51.728;6.674;2024-01-27T10:23:54;33.03;;;15.40;;
4047;SDS011;2038;51.728;6.674;2024-01-27T10:26:21;35.03;;;13.27;;
4047;SDS011;2038;51.728;6.674;2024-01-27T10:28:56;29.27;;;13.63;;
4047;SDS011;2038;51.728;6.674;2024-01-27T10:31:32;27.30;;;14.17;;
4047;SDS011;2038;51.728;6.674;2024-01-27T10:34:00;41.63;;;13.87;;
4047;SDS011;2038;51.728;6.674;2024-01-27T10:36:38;24.83;;;12.20;;
4047;SDS011;2038;51.728;6.674;2024-01-27T10:39:16;30.47;;;13.33;;
4047;SDS011;2038;51.728;6.674;2024-01-27T10:41:46;30.70;;;12.97;;
4047;SDS011;2038;51.728;6.674;2024-01-27T10:44:13;33.30;;;16.30;;
4047;SDS011;2038;51.728;6.674;2024-01-27T10:46:47;28.60;;;13.33;;
4047;SDS011;2038;51.728;6.674;2024-01-27T10:49:15;25.97;;;13.07;;
4047;SDS011;2038;51.728;6.674;2024-01-27T10:51:55;29.57;;;14.70;;
4047;SDS011;2038;51.728;6.674;2024-01-27T10:54:25;23.13;;;11.37;;
4047;SDS011;2038;51.728;6.674;2024-01-27T10:56:53;27.13;;;11.87;;
4047;SDS011;2038;51.728;6.674;2024-01-27T10:59:23;25.50;;;13.87;;
4047;SDS011;2038;51.728;6.674;2024-01-27T11:01:53;30.67;;;12.77;;
4047;SDS011;2038;51.728;6.674;2024-01-27T11:04:21;41.50;;;14.23;;
4047;SDS011;2038;51.728;6.674;2024-01-27T11:06:48;20.13;;;11.50;;
4047;SDS011;2038;51.728;6.674;2024-01-27T11:09:14;24.83;;;12.70;;
4047;SDS011;2038;51.728;6.674;2024-01-27T11:11:43;22.63;;;12.00;;
4047;SDS011;2038;51.728;6.674;2024-01-27T11:14:12;24.93;;;13.50;;
4047;SDS011;2038;51.728;6.674;2024-01-27T11:16:38;33.37;;;12.13;;
4047;SDS011;2038;51.728;6.674;2024-01-27T11:19:10;32.70;;;12.57;;
4047;SDS011;2038;51.728;6.674;2024-01-27T11:21:37;35.43;;;11.27;;
4047;SDS011;2038;51.728;6.674;2024-01-27T11:24:16;20.77;;;12.20;;
4047;SDS011;2038;51.728;6.674;2024-01-27T11:26:43;18.70;;;10.63;;
4047;SDS011;2038;51.728;6.674;2024-01-27T11:29:10;26.90;;;13.63;;
4047;SDS011;2038;51.728;6.674;2024-01-27T11:31:44;28.83;;;11.13;;
4047;SDS011;2038;51.728;6.674;2024-01-27T11:34:11;24.70;;;10.63;;
4047;SDS011;2038;51.728;6.674;2024-01-27T11:36:37;22.20;;;9.40;;
4047;SDS011;2038;51.728;6.674;2024-01-27T11:39:04;27.73;;;10.33;;
4047;SDS011;2038;51.728;6.674;2024-01-27T11:41:47;14.80;;;9.03;;
4047;SDS011;2038;51.728;6.674;2024-01-27T11:44:13;51.60;;;13.00;;
4047;SDS011;2038;51.728;6.674;2024-01-27T11:46:40;17.63;;;8.60;;
4047;SDS011;2038;51.728;6.674;2024-01-27T11:49:07;19.80;;;9.97;;
4047;SDS011;2038;51.728;6.674;2024-01-27T11:51:39;24.17;;;10.20;;
4047;SDS011;2038;51.728;6.674;2024-01-27T11:54:06;21.37;;;7.90;;
4047;SDS011;2038;51.728;6.674;2024-01-27T11:56:32;37.50;;;10.03;;
4047;SDS011;2038;51.728;6.674;2024-01-27T11:58:58;21.40;;;9.57;;
4047;SDS011;2038;51.728;6.674;2024-01-27T12:01:24;20.30;;;8.20;;
4047;SDS011;2038;51.728;6.674;2024-01-27T12:03:50;19.07;;;8.67;;
4047;SDS011;2038;51.728;6.674;2024-01-27T12:06:17;16.97;;;9.00;;
4047;SDS011;2038;51.728;6.674;2024-01-27T12:08:44;14.17;;;8.50;;
4047;SDS011;2038;51.728;6.674;2024-01-27T12:11:12;30.40;;;8.90;;
4047;SDS011;2038;51.728;6.674;2024-01-27T12:13:39;19.13;;;9.47;;
4047;SDS011;2038;51.728;6.674;2024-01-27T12:16:06;21.07;;;9.43;;
4047;SDS011;2038;51.728;6.674;2024-01-27T12:18:34;23.40;;;8.87;;
4047;SDS011;2038;51.728;6.674;2024-01-27T12:21:00;20.47;;;8.43;;
4047;SDS011;2038;51.728;6.674;2024-01-27T12:23:27;13.90;;;8.30;;
4047;SDS011;2038;51.728;6.674;2024-01-27T12:25:53;15.90;;;7.83;;
4047;SDS011;2038;51.728;6.674;2024-01-27T12:28:24;21.00;;;8.00;;
4047;SDS011;2038;51.728;6.674;2024-01-27T12:30:50;18.50;;;8.40;;
4047;SDS011;2038;51.728;6.674;2024-01-27T12:33:18;23.87;;;7.40;;
4047;SDS011;2038;51.728;6.674;2024-01-27T12:35:49;18.73;;;8.93;;
4047;SDS011;2038;51.728;6.674;2024-01-27T12:38:18;24.77;;;8.43;;
4047;SDS011;2038;51.728;6.674;2024-01-27T12:40:45;23.63;;;7.50;;
4047;SDS011;2038;51.728;6.674;2024-01-27T12:43:11;25.37;;;8.20;;
4047;SDS011;2038;51.728;6.674;2024-01-27T12:45:38;18.40;;;8.00;;
4047;SDS011;2038;51.728;6.674;2024-01-27T12:48:04;11.80;;;7.00;;
4047;SDS011;2038;51.728;6.674;2024-01-27T12:50:30;24.57;;;7.73;;
4047;SDS011;2038;51.728;6.674;2024-01-27T12:52:58;24.47;;;8.63;;
4047;SDS011;2038;51.728;6.674;2024-01-27T12:55:24;25.77;;;7.97;;
4047;SDS011;2038;51.728;6.674;2024-01-27T12:57:50;22.90;;;8.40;;
4047;SDS011;2038;51.728;6.674;2024-01-27T13:00:17;27.00;;;11.00;;
4047;SDS011;2038;51.728;6.674;2024-01-27T13:02:44;23.87;;;8.00;;
4047;SDS011;2038;51.728;6.674;2024-01-27T13:05:10;22.43;;;8.33;;
4047;SDS011;2038;51.728;6.674;2024-01-27T13:07:36;22.87;;;8.10;;
4047;SDS011;2038;51.728;6.674;2024-01-27T13:10:02;18.37;;;7.33;;
4047;SDS011;2038;51.728;6.674;2024-01-27T13:12:29;18.43;;;6.73;;
4047;SDS011;2038;51.728;6.674;2024-01-27T13:14:56;21.47;;;8.97;;
4047;SDS011;2038;51.728;6.674;2024-01-27T13:17:23;24.07;;;8.43;;
4047;SDS011;2038;51.728;6.674;2024-01-27T13:19:49;18.27;;;7.77;;
4047;SDS011;2038;51.728;6.674;2024-01-27T13:22:15;20.20;;;8.60;;
4047;SDS011;2038;51.728;6.674;2024-01-27T13:24:42;20.73;;;7.37;;
4047;SDS011;2038;51.728;6.674;2024-01-27T13:27:08;28.10;;;8.97;;
4047;SDS011;2038;51.728;6.674;2024-01-27T13:29:36;13.67;;;6.10;;
4047;SDS011;2038;51.728;6.674;2024-01-27T13:32:02;13.03;;;6.80;;
4047;SDS011;2038;51.728;6.674;2024-01-27T13:34:28;35.57;;;8.07;;
4047;SDS011;2038;51.728;6.674;2024-01-27T13:36:55;22.50;;;7.43;;
4047;SDS011;2038;51.728;6.674;2024-01-27T13:39:22;16.30;;;6.20;;
4047;SDS011;2038;51.728;6.674;2024-01-27T13:41:48;20.50;;;6.70;;
4047;SDS011;2038;51.728;6.674;2024-01-27T13:44:14;15.13;;;7.10;;
4047;SDS011;2038;51.728;6.674;2024-01-27T13:46:40;16.70;;;7.30;;
4047;SDS011;2038;51.728;6.674;2024-01-27T13:49:07;17.63;;;6.97;;
4047;SDS011;2038;51.728;6.674;2024-01-27T13:51:33;12.67;;;5.90;;
4047;SDS011;2038;51.728;6.674;2024-01-27T13:53:59;17.47;;;7.00;;
4047;SDS011;2038;51.728;6.674;2024-01-27T13:56:25;14.47;;;6.63;;
4047;SDS011;2038;51.728;6.674;2024-01-27T13:58:54;15.57;;;6.33;;
4047;SDS011;2038;51.728;6.674;2024-01-27T14:01:20;20.37;;;7.20;;
4047;SDS011;2038;51.728;6.674;2024-01-27T14:03:46;17.53;;;5.70;;
4047;SDS011;2038;51.728;6.674;2024-01-27T14:06:12;14.60;;;5.80;;
4047;SDS011;2038;51.728;6.674;2024-01-27T14:08:39;16.80;;;6.43;;
4047;SDS011;2038;51.728;6.674;2024-01-27T14:11:05;14.57;;;5.00;;
4047;SDS011;2038;51.728;6.674;2024-01-27T14:13:32;15.80;;;6.13;;
4047;SDS011;2038;51.728;6.674;2024-01-27T14:15:58;16.93;;;6.60;;
4047;SDS011;2038;51.728;6.674;2024-01-27T14:18:24;9.13;;;5.20;;
4047;SDS011;2038;51.728;6.674;2024-01-27T14:20:50;12.97;;;5.50;;
4047;SDS011;2038;51.728;6.674;2024-01-27T14:23:17;13.43;;;5.53;;
4047;SDS011;2038;51.728;6.674;2024-01-27T14:25:43;24.33;;;7.10;;
4047;SDS011;2038;51.728;6.674;2024-01-27T14:28:09;13.23;;;5.27;;
4047;SDS011;2038;51.728;6.674;2024-01-27T14:30:36;11.10;;;5.40;;
4047;SDS011;2038;51.728;6.674;2024-01-27T14:33:04;16.77;;;5.83;;
4047;SDS011;2038;51.728;6.674;2024-01-27T14:35:31;28.50;;;7.20;;
4047;SDS011;2038;51.728;6.674;2024-01-27T14:37:58;17.03;;;5.80;;
4047;SDS011;2038;51.728;6.674;2024-01-27T14:40:26;12.83;;;6.27;;
4047;SDS011;2038;51.728;6.674;2024-01-27T14:42:52;10.40;;;5.23;;
4047;SDS011;2038;51.728;6.674;2024-01-27T14:45:18;15.10;;;6.23;;
4047;SDS011;2038;51.728;6.674;2024-01-27T14:47:45;15.90;;;5.77;;
4047;SDS011;2038;51.728;6.674;2024-01-27T14:50:11;14.43;;;5.10;;
4047;SDS011;2038;51.728;6.674;2024-01-27T14:52:38;8.70;;;4.73;;